sensor_id;sensor_type;location;lat;lon;timestamp;P1;durP1;ratioP1;P2;durP2;ratioP2
75297;SDS011;63896;45.990;18.688;2023-05-10T00:01:04;9.77;;;6.20;;
75297;SDS011;63896;45.990;18.688;2023-05-10T00:04:08;10.85;;;6.32;;
75297;SDS011;63896;45.990;18.688;2023-05-10T00:07:10;12.57;;;6.47;;
75297;SDS011;63896;45.990;18.688;2023-05-10T00:10:13;9.40;;;5.85;;
75297;SDS011;63896;45.990;18.688;2023-05-10T00:13:16;9.83;;;6.23;;
75297;SDS011;63896;45.990;18.688;2023-05-10T00:16:19;7.82;;;5.85;;
75297;SDS011;63896;45.990;18.688;2023-05-10T00:19:22;11.10;;;6.35;;
75297;SDS011;63896;45.990;18.688;2023-05-10T00:22:25;9.77;;;6.70;;
75297;SDS011;63896;45.990;18.688;2023-05-10T00:25:28;10.77;;;6.63;;
75297;SDS011;63896;45.990;18.688;2023-05-10T00:28:31;14.17;;;6.80;;
75297;SDS011;63896;45.990;18.688;2023-05-10T00:31:34;9.90;;;6.60;;
75297;SDS011;63896;45.990;18.688;2023-05-10T00:34:37;11.85;;;7.50;;
75297;SDS011;63896;45.990;18.688;2023-05-10T00:37:40;10.60;;;6.57;;
75297;SDS011;63896;45.990;18.688;2023-05-10T00:40:43;11.00;;;6.95;;
75297;SDS011;63896;45.990;18.688;2023-05-10T00:43:54;14.80;;;7.97;;
75297;SDS011;63896;45.990;18.688;2023-05-10T00:46:58;10.82;;;7.20;;
75297;SDS011;63896;45.990;18.688;2023-05-10T00:50:01;11.63;;;7.43;;
75297;SDS011;63896;45.990;18.688;2023-05-10T00:53:05;15.52;;;7.50;;
75297;SDS011;63896;45.990;18.688;2023-05-10T00:56:09;12.68;;;8.07;;
75297;SDS011;63896;45.990;18.688;2023-05-10T00:59:12;16.37;;;7.73;;
75297;SDS011;63896;45.990;18.688;2023-05-10T01:02:15;14.00;;;7.95;;
75297;SDS011;63896;45.990;18.688;2023-05-10T01:05:18;14.50;;;7.85;;
75297;SDS011;63896;45.990;18.688;2023-05-10T01:08:21;14.55;;;7.70;;
75297;SDS011;63896;45.990;18.688;2023-05-10T01:11:24;13.43;;;7.88;;
75297;SDS011;63896;45.990;18.688;2023-05-10T01:14:28;13.27;;;7.97;;
75297;SDS011;63896;45.990;18.688;2023-05-10T01:17:31;12.73;;;8.00;;
75297;SDS011;63896;45.990;18.688;2023-05-10T01:20:37;16.73;;;9.15;;
75297;SDS011;63896;45.990;18.688;2023-05-10T01:34:01;14.35;;;8.90;;
75297;SDS011;63896;45.990;18.688;2023-05-10T01:37:11;15.73;;;9.57;;
75297;SDS011;63896;45.990;18.688;2023-05-10T01:43:31;16.95;;;9.57;;
75297;SDS011;63896;45.990;18.688;2023-05-10T01:46:39;17.63;;;9.80;;
75297;SDS011;63896;45.990;18.688;2023-05-10T01:49:50;17.33;;;9.48;;
75297;SDS011;63896;45.990;18.688;2023-05-10T01:52:55;16.05;;;9.88;;
75297;SDS011;63896;45.990;18.688;2023-05-10T01:55:59;20.67;;;8.75;;
75297;SDS011;63896;45.990;18.688;2023-05-10T01:59:06;15.43;;;9.55;;
75297;SDS011;63896;45.990;18.688;2023-05-10T02:02:13;19.00;;;10.80;;
75297;SDS011;63896;45.990;18.688;2023-05-10T02:05:19;18.38;;;10.10;;
75297;SDS011;63896;45.990;18.688;2023-05-10T02:08:24;21.80;;;11.27;;
75297;SDS011;63896;45.990;18.688;2023-05-10T02:11:28;23.50;;;10.60;;
75297;SDS011;63896;45.990;18.688;2023-05-10T02:14:32;18.52;;;10.50;;
75297;SDS011;63896;45.990;18.688;2023-05-10T02:17:38;18.10;;;10.60;;
75297;SDS011;63896;45.990;18.688;2023-05-10T02:20:47;20.83;;;11.07;;
75297;SDS011;63896;45.990;18.688;2023-05-10T02:23:50;20.35;;;11.70;;
75297;SDS011;63896;45.990;18.688;2023-05-10T02:26:55;20.95;;;12.25;;
75297;SDS011;63896;45.990;18.688;2023-05-10T02:29:59;21.13;;;11.90;;
75297;SDS011;63896;45.990;18.688;2023-05-10T02:33:04;19.77;;;10.73;;
75297;SDS011;63896;45.990;18.688;2023-05-10T02:36:08;22.48;;;12.45;;
75297;SDS011;63896;45.990;18.688;2023-05-10T02:39:13;23.90;;;13.18;;
75297;SDS011;63896;45.990;18.688;2023-05-10T02:42:18;21.77;;;12.38;;
75297;SDS011;63896;45.990;18.688;2023-05-10T02:45:26;25.17;;;12.57;;
75297;SDS011;63896;45.990;18.688;2023-05-10T02:48:31;23.93;;;12.23;;
75297;SDS011;63896;45.990;18.688;2023-05-10T02:51:34;22.85;;;12.85;;
75297;SDS011;63896;45.990;18.688;2023-05-10T02:54:41;23.42;;;12.98;;
75297;SDS011;63896;45.990;18.688;2023-05-10T02:58:00;23.77;;;13.43;;
75297;SDS011;63896;45.990;18.688;2023-05-10T03:01:04;26.00;;;14.38;;
75297;SDS011;63896;45.990;18.688;2023-05-10T03:04:07;24.77;;;13.63;;
75297;SDS011;63896;45.990;18.688;2023-05-10T03:07:10;31.85;;;15.43;;
75297;SDS011;63896;45.990;18.688;2023-05-10T03:10:15;25.65;;;15.40;;
75297;SDS011;63896;45.990;18.688;2023-05-10T03:13:32;27.77;;;14.95;;
75297;SDS011;63896;45.990;18.688;2023-05-10T03:16:47;26.88;;;15.63;;
75297;SDS011;63896;45.990;18.688;2023-05-10T03:20:03;29.37;;;14.93;;
75297;SDS011;63896;45.990;18.688;2023-05-10T03:23:33;27.70;;;14.98;;
75297;SDS011;63896;45.990;18.688;2023-05-10T03:26:39;29.48;;;16.45;;
75297;SDS011;63896;45.990;18.688;2023-05-10T03:29:50;27.33;;;16.02;;
75297;SDS011;63896;45.990;18.688;2023-05-10T03:32:55;29.08;;;16.23;;
75297;SDS011;63896;45.990;18.688;2023-05-10T03:35:59;28.07;;;15.33;;
75297;SDS011;63896;45.990;18.688;2023-05-10T03:39:02;30.23;;;17.05;;
75297;SDS011;63896;45.990;18.688;2023-05-10T03:42:05;28.92;;;16.23;;
75297;SDS011;63896;45.990;18.688;2023-05-10T03:45:08;28.15;;;16.45;;
75297;SDS011;63896;45.990;18.688;2023-05-10T03:48:11;30.02;;;16.88;;
75297;SDS011;63896;45.990;18.688;2023-05-10T03:51:17;30.23;;;15.97;;
75297;SDS011;63896;45.990;18.688;2023-05-10T03:54:20;29.20;;;16.77;;
75297;SDS011;63896;45.990;18.688;2023-05-10T03:57:23;29.80;;;16.27;;
75297;SDS011;63896;45.990;18.688;2023-05-10T04:00:25;27.05;;;15.50;;
75297;SDS011;63896;45.990;18.688;2023-05-10T04:03:30;30.77;;;17.05;;
75297;SDS011;63896;45.990;18.688;2023-05-10T04:06:34;29.93;;;15.97;;
75297;SDS011;63896;45.990;18.688;2023-05-10T04:09:37;27.52;;;15.60;;
75297;SDS011;63896;45.990;18.688;2023-05-10T04:12:40;27.75;;;15.65;;
75297;SDS011;63896;45.990;18.688;2023-05-10T04:15:43;24.08;;;14.40;;
75297;SDS011;63896;45.990;18.688;2023-05-10T04:18:46;23.65;;;13.98;;
75297;SDS011;63896;45.990;18.688;2023-05-10T04:21:49;23.57;;;14.63;;
75297;SDS011;63896;45.990;18.688;2023-05-10T04:24:52;20.63;;;13.32;;
75297;SDS011;63896;45.990;18.688;2023-05-10T04:27:54;18.33;;;11.85;;
75297;SDS011;63896;45.990;18.688;2023-05-10T04:31:01;18.15;;;11.60;;
75297;SDS011;63896;45.990;18.688;2023-05-10T04:34:05;15.98;;;10.32;;
75297;SDS011;63896;45.990;18.688;2023-05-10T04:37:08;14.03;;;9.57;;
75297;SDS011;63896;45.990;18.688;2023-05-10T04:40:11;18.10;;;10.35;;
75297;SDS011;63896;45.990;18.688;2023-05-10T04:43:14;15.95;;;9.68;;
75297;SDS011;63896;45.990;18.688;2023-05-10T04:46:16;12.80;;;9.48;;
75297;SDS011;63896;45.990;18.688;2023-05-10T04:49:19;17.73;;;9.55;;
75297;SDS011;63896;45.990;18.688;2023-05-10T04:52:22;13.50;;;9.30;;
75297;SDS011;63896;45.990;18.688;2023-05-10T04:55:25;11.40;;;8.45;;
75297;SDS011;63896;45.990;18.688;2023-05-10T04:58:29;15.43;;;9.05;;
75297;SDS011;63896;45.990;18.688;2023-05-10T05:01:32;13.23;;;8.65;;
75297;SDS011;63896;45.990;18.688;2023-05-10T05:04:35;12.55;;;8.13;;
75297;SDS011;63896;45.990;18.688;2023-05-10T05:07:38;14.33;;;8.53;;
75297;SDS011;63896;45.990;18.688;2023-05-10T05:10:41;12.93;;;8.57;;
75297;SDS011;63896;45.990;18.688;2023-05-10T05:13:44;11.73;;;8.43;;
75297;SDS011;63896;45.990;18.688;2023-05-10T05:16:49;10.60;;;7.32;;
75297;SDS011;63896;45.990;18.688;2023-05-10T05:19:52;9.70;;;7.25;;
75297;SDS011;63896;45.990;18.688;2023-05-10T05:22:55;8.57;;;7.00;;
75297;SDS011;63896;45.990;18.688;2023-05-10T05:26:01;12.43;;;7.40;;
75297;SDS011;63896;45.990;18.688;2023-05-10T05:29:07;11.00;;;7.40;;
75297;SDS011;63896;45.990;18.688;2023-05-10T05:32:10;11.00;;;7.65;;
75297;SDS011;63896;45.990;18.688;2023-05-10T05:35:13;11.43;;;7.22;;
75297;SDS011;63896;45.990;18.688;2023-05-10T05:38:17;8.87;;;6.80;;
75297;SDS011;63896;45.990;18.688;2023-05-10T05:41:20;9.20;;;6.75;;
75297;SDS011;63896;45.990;18.688;2023-05-10T05:44:24;9.70;;;7.07;;
75297;SDS011;63896;45.990;18.688;2023-05-10T05:47:27;13.15;;;6.85;;
75297;SDS011;63896;45.990;18.688;2023-05-10T05:50:30;9.05;;;6.55;;
75297;SDS011;63896;45.990;18.688;2023-05-10T05:59:05;9.18;;;6.35;;
75297;SDS011;63896;45.990;18.688;2023-05-10T06:02:08;13.15;;;6.63;;
75297;SDS011;63896;45.990;18.688;2023-05-10T06:05:12;10.95;;;6.68;;
75297;SDS011;63896;45.990;18.688;2023-05-10T06:08:17;8.05;;;6.28;;
75297;SDS011;63896;45.990;18.688;2023-05-10T06:11:20;9.10;;;6.23;;
75297;SDS011;63896;45.990;18.688;2023-05-10T06:14:26;9.80;;;6.45;;
75297;SDS011;63896;45.990;18.688;2023-05-10T06:17:30;8.85;;;6.35;;
75297;SDS011;63896;45.990;18.688;2023-05-10T06:20:34;11.75;;;6.93;;
75297;SDS011;63896;45.990;18.688;2023-05-10T06:23:44;9.90;;;6.90;;
75297;SDS011;63896;45.990;18.688;2023-05-10T06:26:48;9.97;;;6.00;;
75297;SDS011;63896;45.990;18.688;2023-05-10T06:29:52;9.95;;;6.70;;
75297;SDS011;63896;45.990;18.688;2023-05-10T06:33:06;12.02;;;6.63;;
75297;SDS011;63896;45.990;18.688;2023-05-10T06:36:11;11.18;;;6.90;;
75297;SDS011;63896;45.990;18.688;2023-05-10T06:39:16;11.80;;;6.90;;
75297;SDS011;63896;45.990;18.688;2023-05-10T06:42:19;10.97;;;6.60;;
75297;SDS011;63896;45.990;18.688;2023-05-10T06:45:22;14.45;;;7.45;;
75297;SDS011;63896;45.990;18.688;2023-05-10T06:48:26;11.43;;;7.85;;
75297;SDS011;63896;45.990;18.688;2023-05-10T06:51:29;12.90;;;7.20;;
75297;SDS011;63896;45.990;18.688;2023-05-10T06:54:52;9.65;;;7.15;;
75297;SDS011;63896;45.990;18.688;2023-05-10T06:57:55;12.07;;;6.77;;
75297;SDS011;63896;45.990;18.688;2023-05-10T07:01:02;11.70;;;6.65;;
75297;SDS011;63896;45.990;18.688;2023-05-10T07:04:05;9.90;;;7.03;;
75297;SDS011;63896;45.990;18.688;2023-05-10T07:07:10;9.15;;;6.95;;
75297;SDS011;63896;45.990;18.688;2023-05-10T07:10:18;12.25;;;7.70;;
75297;SDS011;63896;45.990;18.688;2023-05-10T07:13:21;11.70;;;6.90;;
75297;SDS011;63896;45.990;18.688;2023-05-10T07:16:25;8.52;;;6.88;;
75297;SDS011;63896;45.990;18.688;2023-05-10T07:19:28;10.05;;;6.63;;
75297;SDS011;63896;45.990;18.688;2023-05-10T07:22:35;10.55;;;6.45;;
75297;SDS011;63896;45.990;18.688;2023-05-10T07:25:38;9.85;;;6.15;;
75297;SDS011;63896;45.990;18.688;2023-05-10T07:28:44;10.43;;;7.13;;
75297;SDS011;63896;45.990;18.688;2023-05-10T07:32:41;7.50;;;6.30;;
75297;SDS011;63896;45.990;18.688;2023-05-10T07:35:45;7.35;;;6.65;;
75297;SDS011;63896;45.990;18.688;2023-05-10T07:38:51;9.45;;;6.50;;
75297;SDS011;63896;45.990;18.688;2023-05-10T07:41:54;10.90;;;6.57;;
75297;SDS011;63896;45.990;18.688;2023-05-10T07:44:57;9.33;;;6.77;;
75297;SDS011;63896;45.990;18.688;2023-05-10T07:48:00;8.90;;;7.38;;
75297;SDS011;63896;45.990;18.688;2023-05-10T07:51:04;16.08;;;7.45;;
75297;SDS011;63896;45.990;18.688;2023-05-10T07:54:09;12.27;;;7.53;;
75297;SDS011;63896;45.990;18.688;2023-05-10T07:57:12;9.25;;;5.70;;
75297;SDS011;63896;45.990;18.688;2023-05-10T08:00:18;6.30;;;5.60;;
75297;SDS011;63896;45.990;18.688;2023-05-10T08:03:22;6.65;;;5.88;;
75297;SDS011;63896;45.990;18.688;2023-05-10T08:06:25;11.00;;;6.30;;
75297;SDS011;63896;45.990;18.688;2023-05-10T08:09:32;8.63;;;5.80;;
75297;SDS011;63896;45.990;18.688;2023-05-10T08:12:35;11.48;;;6.13;;
75297;SDS011;63896;45.990;18.688;2023-05-10T08:15:38;7.20;;;6.10;;
75297;SDS011;63896;45.990;18.688;2023-05-10T08:18:42;6.63;;;5.68;;
75297;SDS011;63896;45.990;18.688;2023-05-10T08:21:46;11.52;;;5.65;;
75297;SDS011;63896;45.990;18.688;2023-05-10T08:24:49;11.98;;;6.00;;
75297;SDS011;63896;45.990;18.688;2023-05-10T08:27:52;7.95;;;5.90;;
75297;SDS011;63896;45.990;18.688;2023-05-10T08:30:55;8.70;;;5.73;;
75297;SDS011;63896;45.990;18.688;2023-05-10T08:33:59;8.90;;;6.50;;
75297;SDS011;63896;45.990;18.688;2023-05-10T08:42:16;8.68;;;5.70;;
75297;SDS011;63896;45.990;18.688;2023-05-10T08:46:46;8.70;;;6.65;;
75297;SDS011;63896;45.990;18.688;2023-05-10T08:50:11;7.23;;;5.80;;
75297;SDS011;63896;45.990;18.688;2023-05-10T08:58:23;6.63;;;5.43;;
75297;SDS011;63896;45.990;18.688;2023-05-10T09:06:35;6.25;;;5.63;;
75297;SDS011;63896;45.990;18.688;2023-05-10T09:11:31;6.67;;;4.97;;
75297;SDS011;63896;45.990;18.688;2023-05-10T09:15:09;6.03;;;4.75;;
75297;SDS011;63896;45.990;18.688;2023-05-10T09:18:14;6.53;;;5.20;;
75297;SDS011;63896;45.990;18.688;2023-05-10T09:21:19;7.63;;;5.25;;
75297;SDS011;63896;45.990;18.688;2023-05-10T09:24:25;9.05;;;4.63;;
75297;SDS011;63896;45.990;18.688;2023-05-10T09:27:29;9.07;;;5.43;;
75297;SDS011;63896;45.990;18.688;2023-05-10T09:30:32;7.50;;;5.20;;
75297;SDS011;63896;45.990;18.688;2023-05-10T09:33:43;10.27;;;4.75;;
75297;SDS011;63896;45.990;18.688;2023-05-10T09:36:57;4.80;;;4.22;;
75297;SDS011;63896;45.990;18.688;2023-05-10T09:43:37;6.33;;;4.00;;
75297;SDS011;63896;45.990;18.688;2023-05-10T09:46:48;4.63;;;4.20;;
75297;SDS011;63896;45.990;18.688;2023-05-10T09:49:54;5.50;;;3.88;;
75297;SDS011;63896;45.990;18.688;2023-05-10T09:53:06;5.65;;;3.83;;
75297;SDS011;63896;45.990;18.688;2023-05-10T09:56:56;5.00;;;4.50;;
75297;SDS011;63896;45.990;18.688;2023-05-10T09:59:47;7.97;;;4.40;;
75297;SDS011;63896;45.990;18.688;2023-05-10T10:02:56;7.32;;;4.35;;
75297;SDS011;63896;45.990;18.688;2023-05-10T10:06:01;7.53;;;4.13;;
75297;SDS011;63896;45.990;18.688;2023-05-10T10:09:08;5.18;;;4.38;;
75297;SDS011;63896;45.990;18.688;2023-05-10T10:12:11;6.43;;;4.75;;
75297;SDS011;63896;45.990;18.688;2023-05-10T10:15:17;5.30;;;4.00;;
75297;SDS011;63896;45.990;18.688;2023-05-10T10:18:23;5.65;;;4.03;;
75297;SDS011;63896;45.990;18.688;2023-05-10T10:21:29;5.85;;;5.07;;
75297;SDS011;63896;45.990;18.688;2023-05-10T10:24:42;7.07;;;4.28;;
75297;SDS011;63896;45.990;18.688;2023-05-10T10:30:56;4.87;;;4.27;;
75297;SDS011;63896;45.990;18.688;2023-05-10T10:34:06;4.85;;;4.10;;
75297;SDS011;63896;45.990;18.688;2023-05-10T10:38:04;7.32;;;4.13;;
75297;SDS011;63896;45.990;18.688;2023-05-10T10:41:10;6.55;;;4.10;;
75297;SDS011;63896;45.990;18.688;2023-05-10T10:47:38;7.67;;;3.90;;
75297;SDS011;63896;45.990;18.688;2023-05-10T10:50:44;5.28;;;3.85;;
75297;SDS011;63896;45.990;18.688;2023-05-10T10:53:48;8.57;;;4.18;;
75297;SDS011;63896;45.990;18.688;2023-05-10T10:57:13;6.70;;;4.50;;
75297;SDS011;63896;45.990;18.688;2023-05-10T11:03:23;5.10;;;4.00;;
75297;SDS011;63896;45.990;18.688;2023-05-10T11:06:36;7.10;;;3.40;;
75297;SDS011;63896;45.990;18.688;2023-05-10T11:09:39;4.45;;;3.80;;
75297;SDS011;63896;45.990;18.688;2023-05-10T11:13:21;4.88;;;3.20;;
75297;SDS011;63896;45.990;18.688;2023-05-10T11:19:18;6.23;;;3.40;;
75297;SDS011;63896;45.990;18.688;2023-05-10T11:22:24;4.10;;;3.80;;
75297;SDS011;63896;45.990;18.688;2023-05-10T11:25:28;5.10;;;3.40;;
75297;SDS011;63896;45.990;18.688;2023-05-10T11:28:31;6.63;;;4.05;;
75297;SDS011;63896;45.990;18.688;2023-05-10T11:31:45;3.53;;;3.20;;
75297;SDS011;63896;45.990;18.688;2023-05-10T11:35:13;4.93;;;3.13;;
75297;SDS011;63896;45.990;18.688;2023-05-10T11:38:16;5.65;;;3.70;;
75297;SDS011;63896;45.990;18.688;2023-05-10T11:41:19;7.55;;;3.90;;
75297;SDS011;63896;45.990;18.688;2023-05-10T11:44:32;7.95;;;3.20;;
75297;SDS011;63896;45.990;18.688;2023-05-10T11:47:37;6.88;;;3.60;;
75297;SDS011;63896;45.990;18.688;2023-05-10T11:50:48;3.70;;;3.40;;
75297;SDS011;63896;45.990;18.688;2023-05-10T11:53:53;5.85;;;2.70;;
75297;SDS011;63896;45.990;18.688;2023-05-10T11:56:57;6.93;;;3.50;;
75297;SDS011;63896;45.990;18.688;2023-05-10T12:00:00;4.63;;;3.10;;
75297;SDS011;63896;45.990;18.688;2023-05-10T12:03:08;3.10;;;2.80;;
75297;SDS011;63896;45.990;18.688;2023-05-10T12:06:16;5.27;;;2.80;;
75297;SDS011;63896;45.990;18.688;2023-05-10T12:13:48;7.00;;;2.90;;
75297;SDS011;63896;45.990;18.688;2023-05-10T12:16:52;3.38;;;3.10;;
75297;SDS011;63896;45.990;18.688;2023-05-10T12:19:58;4.13;;;2.83;;
75297;SDS011;63896;45.990;18.688;2023-05-10T12:26:51;4.97;;;3.00;;
75297;SDS011;63896;45.990;18.688;2023-05-10T12:29:58;6.32;;;3.00;;
75297;SDS011;63896;45.990;18.688;2023-05-10T12:33:11;5.90;;;2.92;;
75297;SDS011;63896;45.990;18.688;2023-05-10T12:36:23;6.32;;;3.05;;
75297;SDS011;63896;45.990;18.688;2023-05-10T12:42:56;5.75;;;2.78;;
75297;SDS011;63896;45.990;18.688;2023-05-10T12:46:06;5.55;;;3.45;;
75297;SDS011;63896;45.990;18.688;2023-05-10T12:49:19;3.85;;;3.20;;
75297;SDS011;63896;45.990;18.688;2023-05-10T12:52:22;3.70;;;2.88;;
75297;SDS011;63896;45.990;18.688;2023-05-10T12:55:25;2.70;;;2.50;;
75297;SDS011;63896;45.990;18.688;2023-05-10T12:58:28;4.05;;;3.42;;
75297;SDS011;63896;45.990;18.688;2023-05-10T13:01:38;4.85;;;2.60;;
75297;SDS011;63896;45.990;18.688;2023-05-10T13:04:41;3.00;;;2.70;;
75297;SDS011;63896;45.990;18.688;2023-05-10T13:08:12;4.30;;;2.55;;
75297;SDS011;63896;45.990;18.688;2023-05-10T13:11:15;7.13;;;2.90;;
75297;SDS011;63896;45.990;18.688;2023-05-10T13:14:22;5.93;;;2.60;;
75297;SDS011;63896;45.990;18.688;2023-05-10T13:17:25;3.28;;;2.55;;
75297;SDS011;63896;45.990;18.688;2023-05-10T13:20:32;8.15;;;2.67;;
75297;SDS011;63896;45.990;18.688;2023-05-10T13:23:35;6.22;;;2.42;;
75297;SDS011;63896;45.990;18.688;2023-05-10T13:26:40;3.47;;;2.90;;
75297;SDS011;63896;45.990;18.688;2023-05-10T13:33:27;5.20;;;2.70;;
75297;SDS011;63896;45.990;18.688;2023-05-10T13:36:31;8.68;;;2.42;;
75297;SDS011;63896;45.990;18.688;2023-05-10T13:39:33;2.88;;;2.38;;
75297;SDS011;63896;45.990;18.688;2023-05-10T13:42:37;4.63;;;2.13;;
75297;SDS011;63896;45.990;18.688;2023-05-10T13:45:40;7.47;;;2.33;;
75297;SDS011;63896;45.990;18.688;2023-05-10T13:48:43;5.18;;;2.30;;
75297;SDS011;63896;45.990;18.688;2023-05-10T13:51:46;2.45;;;1.90;;
75297;SDS011;63896;45.990;18.688;2023-05-10T13:54:48;8.60;;;2.17;;
75297;SDS011;63896;45.990;18.688;2023-05-10T13:57:51;3.57;;;2.40;;
75297;SDS011;63896;45.990;18.688;2023-05-10T14:00:54;5.00;;;2.20;;
75297;SDS011;63896;45.990;18.688;2023-05-10T14:03:59;2.65;;;2.05;;
75297;SDS011;63896;45.990;18.688;2023-05-10T14:07:02;2.42;;;2.10;;
75297;SDS011;63896;45.990;18.688;2023-05-10T14:10:05;4.40;;;2.00;;
75297;SDS011;63896;45.990;18.688;2023-05-10T14:13:29;2.13;;;1.93;;
75297;SDS011;63896;45.990;18.688;2023-05-10T14:16:31;3.83;;;2.03;;
75297;SDS011;63896;45.990;18.688;2023-05-10T14:19:35;3.47;;;2.22;;
75297;SDS011;63896;45.990;18.688;2023-05-10T14:22:38;2.85;;;1.70;;
75297;SDS011;63896;45.990;18.688;2023-05-10T14:25:40;5.90;;;1.90;;
75297;SDS011;63896;45.990;18.688;2023-05-10T14:28:43;5.03;;;2.43;;
75297;SDS011;63896;45.990;18.688;2023-05-10T14:31:49;6.05;;;2.00;;
75297;SDS011;63896;45.990;18.688;2023-05-10T14:34:52;3.42;;;2.22;;
75297;SDS011;63896;45.990;18.688;2023-05-10T14:37:55;5.13;;;2.00;;
75297;SDS011;63896;45.990;18.688;2023-05-10T14:40:59;8.57;;;2.00;;
75297;SDS011;63896;45.990;18.688;2023-05-10T14:44:02;4.60;;;1.87;;
75297;SDS011;63896;45.990;18.688;2023-05-10T14:47:05;3.92;;;2.10;;
75297;SDS011;63896;45.990;18.688;2023-05-10T14:50:09;4.28;;;1.85;;
75297;SDS011;63896;45.990;18.688;2023-05-10T14:53:20;9.77;;;2.03;;
75297;SDS011;63896;45.990;18.688;2023-05-10T14:56:22;6.13;;;2.88;;
75297;SDS011;63896;45.990;18.688;2023-05-10T14:59:25;5.47;;;2.10;;
75297;SDS011;63896;45.990;18.688;2023-05-10T15:02:28;3.72;;;2.30;;
75297;SDS011;63896;45.990;18.688;2023-05-10T15:05:33;4.93;;;2.03;;
75297;SDS011;63896;45.990;18.688;2023-05-10T15:08:37;3.47;;;2.00;;
75297;SDS011;63896;45.990;18.688;2023-05-10T15:11:40;5.72;;;2.28;;
75297;SDS011;63896;45.990;18.688;2023-05-10T15:14:42;3.67;;;2.10;;
75297;SDS011;63896;45.990;18.688;2023-05-10T15:17:46;2.38;;;1.90;;
75297;SDS011;63896;45.990;18.688;2023-05-10T15:20:49;5.75;;;1.88;;
75297;SDS011;63896;45.990;18.688;2023-05-10T15:23:52;3.22;;;1.70;;
75297;SDS011;63896;45.990;18.688;2023-05-10T15:26:55;3.33;;;1.73;;
75297;SDS011;63896;45.990;18.688;2023-05-10T15:29:58;2.30;;;1.93;;
75297;SDS011;63896;45.990;18.688;2023-05-10T15:33:01;2.90;;;1.60;;
75297;SDS011;63896;45.990;18.688;2023-05-10T15:36:04;3.90;;;1.90;;
75297;SDS011;63896;45.990;18.688;2023-05-10T15:39:09;3.33;;;1.85;;
75297;SDS011;63896;45.990;18.688;2023-05-10T15:42:12;3.58;;;2.35;;
75297;SDS011;63896;45.990;18.688;2023-05-10T15:45:15;6.00;;;1.67;;
75297;SDS011;63896;45.990;18.688;2023-05-10T15:48:18;4.03;;;1.88;;
75297;SDS011;63896;45.990;18.688;2023-05-10T15:51:21;3.80;;;2.05;;
75297;SDS011;63896;45.990;18.688;2023-05-10T15:54:24;2.13;;;1.70;;
75297;SDS011;63896;45.990;18.688;2023-05-10T15:57:27;5.25;;;1.80;;
75297;SDS011;63896;45.990;18.688;2023-05-10T16:00:29;4.83;;;2.10;;
75297;SDS011;63896;45.990;18.688;2023-05-10T16:03:32;5.72;;;1.90;;
75297;SDS011;63896;45.990;18.688;2023-05-10T16:06:38;3.75;;;2.10;;
75297;SDS011;63896;45.990;18.688;2023-05-10T16:09:41;4.07;;;1.60;;
75297;SDS011;63896;45.990;18.688;2023-05-10T16:12:44;4.45;;;2.00;;
75297;SDS011;63896;45.990;18.688;2023-05-10T16:15:47;5.43;;;1.60;;
75297;SDS011;63896;45.990;18.688;2023-05-10T16:18:50;6.78;;;1.90;;
75297;SDS011;63896;45.990;18.688;2023-05-10T16:22:16;3.80;;;1.92;;
75297;SDS011;63896;45.990;18.688;2023-05-10T16:25:18;3.35;;;1.98;;
75297;SDS011;63896;45.990;18.688;2023-05-10T16:28:24;6.78;;;1.80;;
75297;SDS011;63896;45.990;18.688;2023-05-10T16:31:32;3.63;;;1.80;;
75297;SDS011;63896;45.990;18.688;2023-05-10T16:34:36;4.18;;;2.00;;
75297;SDS011;63896;45.990;18.688;2023-05-10T16:37:38;4.32;;;1.88;;
75297;SDS011;63896;45.990;18.688;2023-05-10T16:40:41;3.92;;;1.75;;
75297;SDS011;63896;45.990;18.688;2023-05-10T16:43:44;7.05;;;1.90;;
75297;SDS011;63896;45.990;18.688;2023-05-10T16:46:47;2.27;;;1.60;;
75297;SDS011;63896;45.990;18.688;2023-05-10T16:49:50;9.95;;;1.50;;
75297;SDS011;63896;45.990;18.688;2023-05-10T16:52:53;6.93;;;1.42;;
75297;SDS011;63896;45.990;18.688;2023-05-10T16:55:56;2.72;;;1.55;;
75297;SDS011;63896;45.990;18.688;2023-05-10T16:58:58;6.53;;;1.50;;
75297;SDS011;63896;45.990;18.688;2023-05-10T17:02:01;3.33;;;1.90;;
75297;SDS011;63896;45.990;18.688;2023-05-10T17:05:04;3.90;;;1.60;;
75297;SDS011;63896;45.990;18.688;2023-05-10T17:08:08;3.70;;;1.52;;
75297;SDS011;63896;45.990;18.688;2023-05-10T17:11:11;2.58;;;1.30;;
75297;SDS011;63896;45.990;18.688;2023-05-10T17:14:14;7.20;;;1.50;;
75297;SDS011;63896;45.990;18.688;2023-05-10T17:17:17;4.57;;;1.70;;
75297;SDS011;63896;45.990;18.688;2023-05-10T17:20:20;4.07;;;1.80;;
75297;SDS011;63896;45.990;18.688;2023-05-10T17:23:23;2.28;;;1.60;;
75297;SDS011;63896;45.990;18.688;2023-05-10T17:26:26;3.13;;;1.70;;
75297;SDS011;63896;45.990;18.688;2023-05-10T17:29:29;4.00;;;1.77;;
75297;SDS011;63896;45.990;18.688;2023-05-10T17:32:33;2.10;;;1.70;;
75297;SDS011;63896;45.990;18.688;2023-05-10T17:35:36;3.33;;;1.50;;
75297;SDS011;63896;45.990;18.688;2023-05-10T17:38:47;5.35;;;1.90;;
75297;SDS011;63896;45.990;18.688;2023-05-10T17:41:51;1.63;;;1.50;;
75297;SDS011;63896;45.990;18.688;2023-05-10T17:44:54;3.42;;;1.48;;
75297;SDS011;63896;45.990;18.688;2023-05-10T17:47:57;4.87;;;1.70;;
75297;SDS011;63896;45.990;18.688;2023-05-10T17:51:00;4.80;;;1.50;;
75297;SDS011;63896;45.990;18.688;2023-05-10T17:54:03;4.18;;;2.22;;
75297;SDS011;63896;45.990;18.688;2023-05-10T17:57:05;3.65;;;1.48;;
75297;SDS011;63896;45.990;18.688;2023-05-10T18:00:09;6.38;;;1.60;;
75297;SDS011;63896;45.990;18.688;2023-05-10T18:03:12;1.50;;;1.30;;
75297;SDS011;63896;45.990;18.688;2023-05-10T18:06:15;3.13;;;1.40;;
75297;SDS011;63896;45.990;18.688;2023-05-10T18:09:18;3.00;;;1.50;;
75297;SDS011;63896;45.990;18.688;2023-05-10T18:12:22;3.55;;;2.33;;
75297;SDS011;63896;45.990;18.688;2023-05-10T18:15:25;7.25;;;3.03;;
75297;SDS011;63896;45.990;18.688;2023-05-10T18:18:29;3.43;;;2.40;;
75297;SDS011;63896;45.990;18.688;2023-05-10T18:21:31;5.15;;;3.00;;
75297;SDS011;63896;45.990;18.688;2023-05-10T18:24:34;5.22;;;3.58;;
75297;SDS011;63896;45.990;18.688;2023-05-10T18:27:42;10.68;;;4.88;;
75297;SDS011;63896;45.990;18.688;2023-05-10T18:30:45;5.13;;;3.10;;
75297;SDS011;63896;45.990;18.688;2023-05-10T18:33:47;7.63;;;2.97;;
75297;SDS011;63896;45.990;18.688;2023-05-10T18:36:50;3.80;;;2.40;;
75297;SDS011;63896;45.990;18.688;2023-05-10T18:39:54;6.63;;;2.30;;
75297;SDS011;63896;45.990;18.688;2023-05-10T18:42:59;7.90;;;4.45;;
75297;SDS011;63896;45.990;18.688;2023-05-10T18:46:01;4.30;;;3.10;;
75297;SDS011;63896;45.990;18.688;2023-05-10T18:52:39;2.50;;;2.00;;
75297;SDS011;63896;45.990;18.688;2023-05-10T18:55:42;3.80;;;2.22;;
75297;SDS011;63896;45.990;18.688;2023-05-10T18:58:47;3.22;;;2.00;;
75297;SDS011;63896;45.990;18.688;2023-05-10T19:01:50;6.70;;;2.08;;
75297;SDS011;63896;45.990;18.688;2023-05-10T19:04:56;3.47;;;2.20;;
75297;SDS011;63896;45.990;18.688;2023-05-10T19:08:00;4.18;;;1.88;;
75297;SDS011;63896;45.990;18.688;2023-05-10T19:11:03;9.80;;;1.80;;
75297;SDS011;63896;45.990;18.688;2023-05-10T19:14:06;2.33;;;1.80;;
75297;SDS011;63896;45.990;18.688;2023-05-10T19:17:13;3.25;;;1.92;;
75297;SDS011;63896;45.990;18.688;2023-05-10T19:20:16;2.57;;;1.60;;
75297;SDS011;63896;45.990;18.688;2023-05-10T19:23:19;3.33;;;1.40;;
75297;SDS011;63896;45.990;18.688;2023-05-10T19:26:22;3.10;;;1.60;;